7°C Temp
'.PHP_EOL;
7°C Dewpoint
100% Humidity
Temperature
8 KM/H
5 MPH
4 KTS
240°
West South
West

Wind
Mostly Cloudy
Pressure 1012.92 (hPa)- 29.91 (in)
Visibility 6.2 (mi) - 10 (km)

Current Conditions
ENZV
Location Stavanger , Sola 100(km)
Metar:
ENZV 210620Z 24004KT 9999 BKN008 07/07 Q1013 NOSIG
Thu 21st February 07:20 am

Airport
  Metar Aviation API Data Provided by https://www.checkwx.com/